Portada
METAR-TAF:

METAR-TAF

Aeroports :

Iakutsk, Rússia

latitud: 62-01N, longitud: 129-43E, altitud: 103 m

Observació

L'informe es va fer fa 12 minuts, a les 19:00 UTC
Vent 2 kt del Oest
Temperatura -14°C
Humitat 66%
Pressió 1018 hPa
Visibilitat 10 km o més
sense núvols per sota de 1500 mi sense presència de cumulonimbus.

METAR: UEEE 181900Z 28001MPS CAVOK M14/M19 Q1018 R23L/09//64 NOSIG RMK QFE754

Hora: 04:12 (19:12 UTC)

Pronòstic

L'informe es va fer fa 2 hores i 12 minuts, a les 17:00 UTC
Pronòstic vàlid del 18 a les 18 UTC al 19 a les 24 UTC
Vent 6 kt del Oest amb ràfegues de 17 kt
Visibilitat 10 km o més
Núvols disperses a una alçada de 3000 ft
Cel ennuvolat a una alçada de 7000 ft

TAF: UEEE 181700Z 1818/1924 28003G09MPS 9999 SCT030 BKN070

Observacions i pronòstics meteorològics de més de 4000 aeroports (METAR i TAF).

Les estacions disponibles són els punts grocs i vermells al mapa.

Posi el ratolí al punt desitjat per veure el nom de l'estació.

Feu clic per veure les observacions i els pronòstics meteorològics.

Per canviar el mapa: feu clic els botons verds amb una creu de color negre per apropar; al botó verd amb un guió per allunyar la imatge; o en les fletxes verdes per a mapes adjacents.


METAR-TAF: